sensor_id;sensor_type;location;lat;lon;timestamp;P1;durP1;ratioP1;P2;durP2;ratioP2
50128;SDS011;36026;45.478;9.224;2024-01-15T00:00:32;220.68;;;110.70;;
50128;SDS011;36026;45.478;9.224;2024-01-15T00:03:34;197.90;;;98.32;;
50128;SDS011;36026;45.478;9.224;2024-01-15T00:06:36;208.05;;;100.07;;
50128;SDS011;36026;45.478;9.224;2024-01-15T00:09:37;186.50;;;89.30;;
50128;SDS011;36026;45.478;9.224;2024-01-15T00:12:40;151.15;;;74.60;;
50128;SDS011;36026;45.478;9.224;2024-01-15T00:15:43;152.32;;;74.38;;
50128;SDS011;36026;45.478;9.224;2024-01-15T00:18:45;130.95;;;66.50;;
50128;SDS011;36026;45.478;9.224;2024-01-15T00:21:46;95.88;;;52.42;;
50128;SDS011;36026;45.478;9.224;2024-01-15T00:24:48;79.05;;;45.08;;
50128;SDS011;36026;45.478;9.224;2024-01-15T00:27:50;70.28;;;41.35;;
50128;SDS011;36026;45.478;9.224;2024-01-15T00:30:53;70.90;;;41.03;;
50128;SDS011;36026;45.478;9.224;2024-01-15T00:33:54;71.57;;;40.97;;
50128;SDS011;36026;45.478;9.224;2024-01-15T00:36:57;68.65;;;40.47;;
50128;SDS011;36026;45.478;9.224;2024-01-15T00:39:59;70.20;;;40.33;;
50128;SDS011;36026;45.478;9.224;2024-01-15T00:43:01;71.85;;;40.88;;
50128;SDS011;36026;45.478;9.224;2024-01-15T00:46:05;72.17;;;41.13;;
50128;SDS011;36026;45.478;9.224;2024-01-15T00:49:06;70.80;;;42.50;;
50128;SDS011;36026;45.478;9.224;2024-01-15T00:52:08;70.75;;;41.60;;
50128;SDS011;36026;45.478;9.224;2024-01-15T00:55:10;68.27;;;41.63;;
50128;SDS011;36026;45.478;9.224;2024-01-15T00:58:11;71.60;;;42.03;;
50128;SDS011;36026;45.478;9.224;2024-01-15T01:01:15;71.75;;;41.78;;
50128;SDS011;36026;45.478;9.224;2024-01-15T01:04:16;67.05;;;40.83;;
50128;SDS011;36026;45.478;9.224;2024-01-15T01:07:18;70.53;;;41.57;;
50128;SDS011;36026;45.478;9.224;2024-01-15T01:10:20;69.25;;;41.22;;
50128;SDS011;36026;45.478;9.224;2024-01-15T01:13:22;71.47;;;42.33;;
50128;SDS011;36026;45.478;9.224;2024-01-15T01:16:25;72.07;;;41.50;;
50128;SDS011;36026;45.478;9.224;2024-01-15T01:19:27;70.50;;;41.83;;
50128;SDS011;36026;45.478;9.224;2024-01-15T01:22:30;70.07;;;41.80;;
50128;SDS011;36026;45.478;9.224;2024-01-15T01:25:32;68.43;;;40.58;;
50128;SDS011;36026;45.478;9.224;2024-01-15T01:28:33;69.13;;;40.80;;
50128;SDS011;36026;45.478;9.224;2024-01-15T01:31:37;70.70;;;42.63;;
50128;SDS011;36026;45.478;9.224;2024-01-15T01:34:43;68.38;;;40.83;;
50128;SDS011;36026;45.478;9.224;2024-01-15T01:37:45;72.87;;;42.67;;
50128;SDS011;36026;45.478;9.224;2024-01-15T01:40:47;72.15;;;42.63;;
50128;SDS011;36026;45.478;9.224;2024-01-15T01:43:49;72.18;;;43.20;;
50128;SDS011;36026;45.478;9.224;2024-01-15T01:46:52;71.18;;;42.13;;
50128;SDS011;36026;45.478;9.224;2024-01-15T01:49:54;72.22;;;42.72;;
50128;SDS011;36026;45.478;9.224;2024-01-15T01:52:56;72.15;;;43.35;;
50128;SDS011;36026;45.478;9.224;2024-01-15T01:55:57;69.83;;;42.80;;
50128;SDS011;36026;45.478;9.224;2024-01-15T01:58:59;73.38;;;42.97;;
50128;SDS011;36026;45.478;9.224;2024-01-15T02:02:03;77.60;;;43.58;;
50128;SDS011;36026;45.478;9.224;2024-01-15T02:05:05;71.60;;;43.42;;
50128;SDS011;36026;45.478;9.224;2024-01-15T02:08:08;70.67;;;42.33;;
50128;SDS011;36026;45.478;9.224;2024-01-15T02:11:10;68.50;;;42.15;;
50128;SDS011;36026;45.478;9.224;2024-01-15T02:14:12;73.87;;;43.57;;
50128;SDS011;36026;45.478;9.224;2024-01-15T02:17:15;72.07;;;43.83;;
50128;SDS011;36026;45.478;9.224;2024-01-15T02:20:17;70.67;;;42.47;;
50128;SDS011;36026;45.478;9.224;2024-01-15T02:23:20;70.45;;;41.78;;
50128;SDS011;36026;45.478;9.224;2024-01-15T02:26:22;68.40;;;40.63;;
50128;SDS011;36026;45.478;9.224;2024-01-15T02:29:23;67.50;;;40.75;;
50128;SDS011;36026;45.478;9.224;2024-01-15T02:32:25;68.57;;;42.10;;
50128;SDS011;36026;45.478;9.224;2024-01-15T02:35:27;70.60;;;41.80;;
50128;SDS011;36026;45.478;9.224;2024-01-15T02:38:30;67.28;;;40.63;;
50128;SDS011;36026;45.478;9.224;2024-01-15T02:41:32;70.47;;;41.87;;
50128;SDS011;36026;45.478;9.224;2024-01-15T02:44:33;67.65;;;41.03;;
50128;SDS011;36026;45.478;9.224;2024-01-15T02:47:35;68.10;;;40.63;;
50128;SDS011;36026;45.478;9.224;2024-01-15T02:50:37;64.47;;;39.15;;
50128;SDS011;36026;45.478;9.224;2024-01-15T02:53:40;66.93;;;41.00;;
50128;SDS011;36026;45.478;9.224;2024-01-15T02:56:42;64.68;;;39.03;;
50128;SDS011;36026;45.478;9.224;2024-01-15T02:59:44;64.22;;;39.65;;
50128;SDS011;36026;45.478;9.224;2024-01-15T03:02:45;67.77;;;40.93;;
50128;SDS011;36026;45.478;9.224;2024-01-15T03:05:47;67.95;;;40.63;;
50128;SDS011;36026;45.478;9.224;2024-01-15T03:08:50;69.43;;;41.47;;
50128;SDS011;36026;45.478;9.224;2024-01-15T03:11:52;71.07;;;42.10;;
50128;SDS011;36026;45.478;9.224;2024-01-15T03:14:54;70.57;;;41.33;;
50128;SDS011;36026;45.478;9.224;2024-01-15T03:17:56;65.60;;;39.70;;
50128;SDS011;36026;45.478;9.224;2024-01-15T03:20:58;66.57;;;40.10;;
50128;SDS011;36026;45.478;9.224;2024-01-15T03:24:02;73.13;;;43.28;;
50128;SDS011;36026;45.478;9.224;2024-01-15T03:27:05;71.38;;;42.00;;
50128;SDS011;36026;45.478;9.224;2024-01-15T03:30:07;75.20;;;42.37;;
50128;SDS011;36026;45.478;9.224;2024-01-15T03:33:09;71.25;;;42.05;;
50128;SDS011;36026;45.478;9.224;2024-01-15T03:36:11;68.63;;;40.97;;
50128;SDS011;36026;45.478;9.224;2024-01-15T03:39:14;69.57;;;41.65;;
50128;SDS011;36026;45.478;9.224;2024-01-15T03:42:16;68.60;;;41.53;;
50128;SDS011;36026;45.478;9.224;2024-01-15T03:45:17;71.78;;;40.97;;
50128;SDS011;36026;45.478;9.224;2024-01-15T03:48:19;67.10;;;40.30;;
50128;SDS011;36026;45.478;9.224;2024-01-15T03:51:21;67.30;;;40.63;;
50128;SDS011;36026;45.478;9.224;2024-01-15T03:54:24;70.55;;;40.97;;
50128;SDS011;36026;45.478;9.224;2024-01-15T03:57:27;68.88;;;41.17;;
50128;SDS011;36026;45.478;9.224;2024-01-15T04:00:28;66.95;;;40.38;;
50128;SDS011;36026;45.478;9.224;2024-01-15T04:03:30;71.70;;;42.92;;
50128;SDS011;36026;45.478;9.224;2024-01-15T04:06:32;72.03;;;42.13;;
50128;SDS011;36026;45.478;9.224;2024-01-15T04:09:35;70.28;;;40.92;;
50128;SDS011;36026;45.478;9.224;2024-01-15T04:12:38;72.88;;;41.13;;
50128;SDS011;36026;45.478;9.224;2024-01-15T04:15:39;69.38;;;40.33;;
50128;SDS011;36026;45.478;9.224;2024-01-15T04:18:41;77.15;;;42.58;;
50128;SDS011;36026;45.478;9.224;2024-01-15T04:21:43;70.97;;;40.83;;
50128;SDS011;36026;45.478;9.224;2024-01-15T04:24:46;67.15;;;40.15;;
50128;SDS011;36026;45.478;9.224;2024-01-15T04:27:47;68.22;;;40.85;;
50128;SDS011;36026;45.478;9.224;2024-01-15T04:30:49;68.55;;;40.60;;
50128;SDS011;36026;45.478;9.224;2024-01-15T04:33:51;69.03;;;40.53;;
50128;SDS011;36026;45.478;9.224;2024-01-15T04:36:52;69.50;;;39.47;;
50128;SDS011;36026;45.478;9.224;2024-01-15T04:39:56;65.38;;;38.60;;
50128;SDS011;36026;45.478;9.224;2024-01-15T04:42:57;63.13;;;36.85;;
50128;SDS011;36026;45.478;9.224;2024-01-15T04:45:59;66.43;;;37.72;;
50128;SDS011;36026;45.478;9.224;2024-01-15T04:49:01;67.80;;;39.07;;
50128;SDS011;36026;45.478;9.224;2024-01-15T04:52:02;69.63;;;40.00;;
50128;SDS011;36026;45.478;9.224;2024-01-15T04:55:07;70.40;;;40.65;;
50128;SDS011;36026;45.478;9.224;2024-01-15T04:58:09;71.22;;;41.17;;
50128;SDS011;36026;45.478;9.224;2024-01-15T05:01:10;70.72;;;41.60;;
50128;SDS011;36026;45.478;9.224;2024-01-15T05:04:12;67.10;;;40.17;;
50128;SDS011;36026;45.478;9.224;2024-01-15T05:07:14;70.03;;;40.93;;
50128;SDS011;36026;45.478;9.224;2024-01-15T05:10:17;71.35;;;40.38;;
50128;SDS011;36026;45.478;9.224;2024-01-15T05:13:19;70.47;;;41.28;;
50128;SDS011;36026;45.478;9.224;2024-01-15T05:16:21;69.87;;;40.20;;
50128;SDS011;36026;45.478;9.224;2024-01-15T05:19:22;70.70;;;41.25;;
50128;SDS011;36026;45.478;9.224;2024-01-15T05:22:24;75.95;;;42.80;;
50128;SDS011;36026;45.478;9.224;2024-01-15T05:25:27;70.63;;;40.75;;
50128;SDS011;36026;45.478;9.224;2024-01-15T05:28:29;73.32;;;40.78;;
50128;SDS011;36026;45.478;9.224;2024-01-15T05:31:31;71.45;;;41.95;;
50128;SDS011;36026;45.478;9.224;2024-01-15T05:34:33;70.28;;;40.97;;
50128;SDS011;36026;45.478;9.224;2024-01-15T05:37:34;73.40;;;41.83;;
50128;SDS011;36026;45.478;9.224;2024-01-15T05:40:38;74.78;;;41.40;;
50128;SDS011;36026;45.478;9.224;2024-01-15T05:43:39;76.50;;;43.42;;
50128;SDS011;36026;45.478;9.224;2024-01-15T05:46:41;76.63;;;42.50;;
50128;SDS011;36026;45.478;9.224;2024-01-15T05:49:43;72.10;;;42.90;;
50128;SDS011;36026;45.478;9.224;2024-01-15T05:52:44;75.32;;;42.38;;
50128;SDS011;36026;45.478;9.224;2024-01-15T05:55:48;77.03;;;43.00;;
50128;SDS011;36026;45.478;9.224;2024-01-15T05:58:49;76.05;;;42.28;;
50128;SDS011;36026;45.478;9.224;2024-01-15T06:01:51;73.82;;;42.17;;
50128;SDS011;36026;45.478;9.224;2024-01-15T06:04:53;75.88;;;43.60;;
50128;SDS011;36026;45.478;9.224;2024-01-15T06:07:54;73.85;;;42.55;;
50128;SDS011;36026;45.478;9.224;2024-01-15T06:10:57;72.05;;;41.80;;
50128;SDS011;36026;45.478;9.224;2024-01-15T06:13:59;74.82;;;42.88;;
50128;SDS011;36026;45.478;9.224;2024-01-15T06:17:01;78.68;;;44.15;;
50128;SDS011;36026;45.478;9.224;2024-01-15T06:20:03;75.87;;;44.47;;
50128;SDS011;36026;45.478;9.224;2024-01-15T06:23:05;76.30;;;43.22;;
50128;SDS011;36026;45.478;9.224;2024-01-15T06:26:09;76.33;;;43.57;;
50128;SDS011;36026;45.478;9.224;2024-01-15T06:29:12;76.15;;;43.63;;
50128;SDS011;36026;45.478;9.224;2024-01-15T06:32:14;78.77;;;44.20;;
50128;SDS011;36026;45.478;9.224;2024-01-15T06:35:16;76.22;;;43.80;;
50128;SDS011;36026;45.478;9.224;2024-01-15T06:38:18;80.30;;;44.05;;
50128;SDS011;36026;45.478;9.224;2024-01-15T06:41:21;76.55;;;43.67;;
50128;SDS011;36026;45.478;9.224;2024-01-15T06:44:22;77.78;;;44.13;;
50128;SDS011;36026;45.478;9.224;2024-01-15T06:47:24;80.20;;;43.97;;
50128;SDS011;36026;45.478;9.224;2024-01-15T06:50:26;77.82;;;44.72;;
50128;SDS011;36026;45.478;9.224;2024-01-15T06:53:28;73.43;;;43.05;;
50128;SDS011;36026;45.478;9.224;2024-01-15T06:56:31;78.63;;;44.63;;
50128;SDS011;36026;45.478;9.224;2024-01-15T06:59:33;87.85;;;49.05;;
50128;SDS011;36026;45.478;9.224;2024-01-15T07:02:35;85.20;;;47.58;;
50128;SDS011;36026;45.478;9.224;2024-01-15T07:05:37;81.55;;;46.80;;
50128;SDS011;36026;45.478;9.224;2024-01-15T07:08:39;84.97;;;47.10;;
50128;SDS011;36026;45.478;9.224;2024-01-15T07:11:45;80.57;;;46.55;;
50128;SDS011;36026;45.478;9.224;2024-01-15T07:14:47;77.72;;;45.85;;
50128;SDS011;36026;45.478;9.224;2024-01-15T07:17:49;78.75;;;46.08;;
50128;SDS011;36026;45.478;9.224;2024-01-15T07:20:50;83.47;;;47.10;;
50128;SDS011;36026;45.478;9.224;2024-01-15T07:23:52;78.10;;;45.15;;
50128;SDS011;36026;45.478;9.224;2024-01-15T07:26:55;80.80;;;46.70;;
50128;SDS011;36026;45.478;9.224;2024-01-15T07:29:57;76.82;;;45.25;;
50128;SDS011;36026;45.478;9.224;2024-01-15T07:32:59;91.40;;;50.90;;
50128;SDS011;36026;45.478;9.224;2024-01-15T07:36:01;79.65;;;45.97;;
50128;SDS011;36026;45.478;9.224;2024-01-15T07:39:03;84.75;;;46.35;;
50128;SDS011;36026;45.478;9.224;2024-01-15T07:42:06;81.45;;;46.55;;
50128;SDS011;36026;45.478;9.224;2024-01-15T07:45:08;81.13;;;46.45;;
50128;SDS011;36026;45.478;9.224;2024-01-15T07:48:11;79.53;;;44.97;;
50128;SDS011;36026;45.478;9.224;2024-01-15T07:51:12;76.75;;;45.70;;
50128;SDS011;36026;45.478;9.224;2024-01-15T07:54:15;77.38;;;45.58;;
50128;SDS011;36026;45.478;9.224;2024-01-15T07:57:18;80.23;;;46.23;;
50128;SDS011;36026;45.478;9.224;2024-01-15T08:00:19;79.45;;;46.47;;
50128;SDS011;36026;45.478;9.224;2024-01-15T08:03:21;73.10;;;42.80;;
50128;SDS011;36026;45.478;9.224;2024-01-15T08:06:23;71.50;;;43.10;;
50128;SDS011;36026;45.478;9.224;2024-01-15T08:09:24;73.90;;;43.65;;
50128;SDS011;36026;45.478;9.224;2024-01-15T08:12:28;72.10;;;41.83;;
50128;SDS011;36026;45.478;9.224;2024-01-15T08:15:29;67.97;;;41.20;;
50128;SDS011;36026;45.478;9.224;2024-01-15T08:18:31;65.93;;;41.28;;
50128;SDS011;36026;45.478;9.224;2024-01-15T08:21:33;66.88;;;40.88;;
50128;SDS011;36026;45.478;9.224;2024-01-15T08:24:34;66.50;;;40.97;;
50128;SDS011;36026;45.478;9.224;2024-01-15T08:27:37;65.65;;;40.83;;
50128;SDS011;36026;45.478;9.224;2024-01-15T08:30:39;65.63;;;40.95;;
50128;SDS011;36026;45.478;9.224;2024-01-15T08:33:41;63.40;;;40.38;;
50128;SDS011;36026;45.478;9.224;2024-01-15T08:36:42;62.78;;;39.92;;
50128;SDS011;36026;45.478;9.224;2024-01-15T08:39:44;62.47;;;39.08;;
50128;SDS011;36026;45.478;9.224;2024-01-15T08:42:47;62.40;;;39.03;;
50128;SDS011;36026;45.478;9.224;2024-01-15T08:45:49;63.53;;;38.17;;
50128;SDS011;36026;45.478;9.224;2024-01-15T08:48:51;65.22;;;39.50;;
50128;SDS011;36026;45.478;9.224;2024-01-15T08:51:52;65.20;;;38.97;;
50128;SDS011;36026;45.478;9.224;2024-01-15T08:54:55;69.07;;;40.73;;
50128;SDS011;36026;45.478;9.224;2024-01-15T08:57:58;71.30;;;40.05;;
50128;SDS011;36026;45.478;9.224;2024-01-15T09:01:00;63.90;;;39.05;;
50128;SDS011;36026;45.478;9.224;2024-01-15T09:04:01;58.38;;;38.28;;
50128;SDS011;36026;45.478;9.224;2024-01-15T09:07:03;61.22;;;37.47;;
50128;SDS011;36026;45.478;9.224;2024-01-15T09:10:06;54.92;;;35.75;;
50128;SDS011;36026;45.478;9.224;2024-01-15T09:13:09;53.53;;;35.05;;
50128;SDS011;36026;45.478;9.224;2024-01-15T09:16:11;50.55;;;34.15;;
50128;SDS011;36026;45.478;9.224;2024-01-15T09:19:13;52.42;;;33.95;;
50128;SDS011;36026;45.478;9.224;2024-01-15T09:22:14;48.10;;;32.25;;
50128;SDS011;36026;45.478;9.224;2024-01-15T09:25:19;46.97;;;32.70;;
50128;SDS011;36026;45.478;9.224;2024-01-15T09:28:22;47.30;;;31.48;;
50128;SDS011;36026;45.478;9.224;2024-01-15T09:31:24;44.97;;;30.58;;
50128;SDS011;36026;45.478;9.224;2024-01-15T09:34:25;42.53;;;29.55;;
50128;SDS011;36026;45.478;9.224;2024-01-15T09:37:27;42.70;;;29.33;;
50128;SDS011;36026;45.478;9.224;2024-01-15T09:40:31;39.60;;;27.90;;
50128;SDS011;36026;45.478;9.224;2024-01-15T09:43:35;45.80;;;30.80;;
50128;SDS011;36026;45.478;9.224;2024-01-15T09:46:38;46.75;;;31.27;;
50128;SDS011;36026;45.478;9.224;2024-01-15T09:49:41;52.33;;;34.63;;
50128;SDS011;36026;45.478;9.224;2024-01-15T09:52:43;56.55;;;36.10;;
50128;SDS011;36026;45.478;9.224;2024-01-15T09:55:46;53.83;;;34.42;;
50128;SDS011;36026;45.478;9.224;2024-01-15T09:58:49;49.90;;;33.40;;
50128;SDS011;36026;45.478;9.224;2024-01-15T10:01:52;48.77;;;32.07;;
50128;SDS011;36026;45.478;9.224;2024-01-15T10:04:55;53.13;;;34.60;;
50128;SDS011;36026;45.478;9.224;2024-01-15T10:07:57;50.90;;;33.77;;
50128;SDS011;36026;45.478;9.224;2024-01-15T10:10:58;47.45;;;32.33;;
50128;SDS011;36026;45.478;9.224;2024-01-15T10:14:02;48.72;;;32.63;;
50128;SDS011;36026;45.478;9.224;2024-01-15T10:17:11;43.70;;;30.48;;
50128;SDS011;36026;45.478;9.224;2024-01-15T10:20:14;41.07;;;28.73;;
50128;SDS011;36026;45.478;9.224;2024-01-15T10:23:16;45.42;;;31.25;;
50128;SDS011;36026;45.478;9.224;2024-01-15T10:26:18;48.30;;;32.05;;
50128;SDS011;36026;45.478;9.224;2024-01-15T10:29:21;46.40;;;30.55;;
50128;SDS011;36026;45.478;9.224;2024-01-15T10:32:23;37.25;;;26.23;;
50128;SDS011;36026;45.478;9.224;2024-01-15T10:35:26;40.90;;;27.35;;
50128;SDS011;36026;45.478;9.224;2024-01-15T10:38:28;35.13;;;25.47;;
50128;SDS011;36026;45.478;9.224;2024-01-15T10:41:30;34.75;;;24.10;;
50128;SDS011;36026;45.478;9.224;2024-01-15T10:44:33;30.73;;;23.15;;
50128;SDS011;36026;45.478;9.224;2024-01-15T10:47:35;32.45;;;22.30;;
50128;SDS011;36026;45.478;9.224;2024-01-15T10:50:37;32.37;;;22.87;;
50128;SDS011;36026;45.478;9.224;2024-01-15T10:53:39;30.88;;;22.70;;
50128;SDS011;36026;45.478;9.224;2024-01-15T10:56:41;29.30;;;21.13;;
50128;SDS011;36026;45.478;9.224;2024-01-15T10:59:45;30.30;;;21.40;;
50128;SDS011;36026;45.478;9.224;2024-01-15T11:02:46;26.67;;;19.33;;
50128;SDS011;36026;45.478;9.224;2024-01-15T11:05:48;24.45;;;18.58;;
50128;SDS011;36026;45.478;9.224;2024-01-15T11:08:50;25.15;;;18.52;;
50128;SDS011;36026;45.478;9.224;2024-01-15T11:12:06;26.40;;;19.27;;
50128;SDS011;36026;45.478;9.224;2024-01-15T11:15:10;26.15;;;19.45;;
50128;SDS011;36026;45.478;9.224;2024-01-15T11:18:21;26.13;;;20.20;;
50128;SDS011;36026;45.478;9.224;2024-01-15T11:21:23;25.90;;;18.58;;
50128;SDS011;36026;45.478;9.224;2024-01-15T11:24:38;24.65;;;17.63;;
50128;SDS011;36026;45.478;9.224;2024-01-15T11:27:40;22.75;;;16.80;;
50128;SDS011;36026;45.478;9.224;2024-01-15T11:30:44;23.13;;;17.17;;
50128;SDS011;36026;45.478;9.224;2024-01-15T11:33:49;23.67;;;17.20;;
50128;SDS011;36026;45.478;9.224;2024-01-15T11:37:00;22.30;;;16.58;;
50128;SDS011;36026;45.478;9.224;2024-01-15T11:40:02;19.35;;;14.32;;
50128;SDS011;36026;45.478;9.224;2024-01-15T11:43:05;18.27;;;13.33;;
50128;SDS011;36026;45.478;9.224;2024-01-15T11:46:11;18.50;;;13.02;;
50128;SDS011;36026;45.478;9.224;2024-01-15T11:49:13;17.38;;;13.15;;
50128;SDS011;36026;45.478;9.224;2024-01-15T11:52:25;18.03;;;12.87;;
50128;SDS011;36026;45.478;9.224;2024-01-15T11:55:27;15.60;;;12.00;;
50128;SDS011;36026;45.478;9.224;2024-01-15T11:58:31;15.60;;;11.88;;
50128;SDS011;36026;45.478;9.224;2024-01-15T12:01:35;17.92;;;13.15;;
50128;SDS011;36026;45.478;9.224;2024-01-15T12:04:37;19.25;;;14.95;;
50128;SDS011;36026;45.478;9.224;2024-01-15T12:07:39;19.30;;;14.60;;
50128;SDS011;36026;45.478;9.224;2024-01-15T12:10:41;20.30;;;15.17;;
50128;SDS011;36026;45.478;9.224;2024-01-15T12:13:43;20.52;;;14.95;;
50128;SDS011;36026;45.478;9.224;2024-01-15T12:16:47;17.98;;;14.05;;
50128;SDS011;36026;45.478;9.224;2024-01-15T12:19:48;18.00;;;12.57;;
50128;SDS011;36026;45.478;9.224;2024-01-15T12:22:50;14.48;;;11.50;;
50128;SDS011;36026;45.478;9.224;2024-01-15T12:25:52;15.07;;;11.35;;
50128;SDS011;36026;45.478;9.224;2024-01-15T12:28:54;14.85;;;11.43;;
50128;SDS011;36026;45.478;9.224;2024-01-15T12:31:57;15.82;;;12.10;;
50128;SDS011;36026;45.478;9.224;2024-01-15T12:35:00;14.98;;;11.75;;
50128;SDS011;36026;45.478;9.224;2024-01-15T12:38:02;16.63;;;12.10;;
50128;SDS011;36026;45.478;9.224;2024-01-15T12:41:04;14.98;;;11.52;;
50128;SDS011;36026;45.478;9.224;2024-01-15T12:44:06;18.70;;;12.95;;
50128;SDS011;36026;45.478;9.224;2024-01-15T12:47:10;17.02;;;12.57;;
50128;SDS011;36026;45.478;9.224;2024-01-15T12:50:12;17.13;;;13.30;;
50128;SDS011;36026;45.478;9.224;2024-01-15T12:53:14;15.77;;;12.45;;
50128;SDS011;36026;45.478;9.224;2024-01-15T12:56:17;17.30;;;11.80;;
50128;SDS011;36026;45.478;9.224;2024-01-15T12:59:19;16.33;;;11.68;;
50128;SDS011;36026;45.478;9.224;2024-01-15T13:02:22;17.95;;;13.25;;
50128;SDS011;36026;45.478;9.224;2024-01-15T13:05:24;15.30;;;11.55;;
50128;SDS011;36026;45.478;9.224;2024-01-15T13:08:27;16.50;;;11.45;;
50128;SDS011;36026;45.478;9.224;2024-01-15T13:11:29;15.70;;;11.35;;
50128;SDS011;36026;45.478;9.224;2024-01-15T13:14:31;16.20;;;11.35;;
50128;SDS011;36026;45.478;9.224;2024-01-15T13:17:35;15.95;;;11.48;;
50128;SDS011;36026;45.478;9.224;2024-01-15T13:20:37;16.00;;;11.52;;
50128;SDS011;36026;45.478;9.224;2024-01-15T13:23:39;15.13;;;10.95;;
50128;SDS011;36026;45.478;9.224;2024-01-15T13:26:40;17.75;;;11.80;;
50128;SDS011;36026;45.478;9.224;2024-01-15T13:29:42;15.85;;;11.55;;
50128;SDS011;36026;45.478;9.224;2024-01-15T13:32:46;14.38;;;10.98;;
50128;SDS011;36026;45.478;9.224;2024-01-15T13:35:48;13.77;;;10.88;;
50128;SDS011;36026;45.478;9.224;2024-01-15T13:38:50;15.50;;;11.43;;
50128;SDS011;36026;45.478;9.224;2024-01-15T13:41:52;15.63;;;11.63;;
50128;SDS011;36026;45.478;9.224;2024-01-15T13:44:54;14.35;;;10.80;;
50128;SDS011;36026;45.478;9.224;2024-01-15T13:47:57;12.43;;;9.57;;
50128;SDS011;36026;45.478;9.224;2024-01-15T13:50:59;13.15;;;9.40;;
50128;SDS011;36026;45.478;9.224;2024-01-15T13:54:00;14.13;;;10.38;;
50128;SDS011;36026;45.478;9.224;2024-01-15T13:57:04;11.45;;;9.63;;
50128;SDS011;36026;45.478;9.224;2024-01-15T14:00:06;10.63;;;8.65;;
50128;SDS011;36026;45.478;9.224;2024-01-15T14:03:12;12.20;;;8.83;;
50128;SDS011;36026;45.478;9.224;2024-01-15T14:06:14;9.63;;;8.25;;
50128;SDS011;36026;45.478;9.224;2024-01-15T14:09:16;14.05;;;9.23;;
50128;SDS011;36026;45.478;9.224;2024-01-15T14:12:18;12.75;;;8.45;;
50128;SDS011;36026;45.478;9.224;2024-01-15T14:15:20;12.68;;;8.65;;
50128;SDS011;36026;45.478;9.224;2024-01-15T14:18:23;11.23;;;8.47;;
50128;SDS011;36026;45.478;9.224;2024-01-15T14:21:25;11.23;;;8.52;;
50128;SDS011;36026;45.478;9.224;2024-01-15T14:24:27;11.88;;;8.75;;
50128;SDS011;36026;45.478;9.224;2024-01-15T14:27:29;11.13;;;8.45;;
50128;SDS011;36026;45.478;9.224;2024-01-15T14:30:30;11.25;;;8.60;;
50128;SDS011;36026;45.478;9.224;2024-01-15T14:33:34;12.05;;;8.75;;
50128;SDS011;36026;45.478;9.224;2024-01-15T14:36:35;10.93;;;8.32;;
50128;SDS011;36026;45.478;9.224;2024-01-15T14:39:38;10.35;;;7.93;;
50128;SDS011;36026;45.478;9.224;2024-01-15T14:42:40;11.23;;;8.25;;
50128;SDS011;36026;45.478;9.224;2024-01-15T14:45:42;10.57;;;7.82;;
50128;SDS011;36026;45.478;9.224;2024-01-15T14:48:46;21.50;;;15.07;;
50128;SDS011;36026;45.478;9.224;2024-01-15T14:51:48;45.00;;;25.48;;
50128;SDS011;36026;45.478;9.224;2024-01-15T14:54:50;43.30;;;25.10;;
50128;SDS011;36026;45.478;9.224;2024-01-15T14:57:51;48.43;;;27.13;;
50128;SDS011;36026;45.478;9.224;2024-01-15T15:00:53;60.03;;;32.63;;
50128;SDS011;36026;45.478;9.224;2024-01-15T15:03:58;54.17;;;31.80;;
50128;SDS011;36026;45.478;9.224;2024-01-15T15:06:59;62.47;;;36.45;;
50128;SDS011;36026;45.478;9.224;2024-01-15T15:10:01;39.10;;;24.75;;
50128;SDS011;36026;45.478;9.224;2024-01-15T15:13:04;14.75;;;10.38;;
50128;SDS011;36026;45.478;9.224;2024-01-15T15:16:06;14.68;;;9.52;;
50128;SDS011;36026;45.478;9.224;2024-01-15T15:19:09;13.02;;;9.20;;
50128;SDS011;36026;45.478;9.224;2024-01-15T15:22:11;11.70;;;8.70;;
50128;SDS011;36026;45.478;9.224;2024-01-15T15:25:12;12.43;;;8.52;;
50128;SDS011;36026;45.478;9.224;2024-01-15T15:28:14;13.80;;;9.05;;
50128;SDS011;36026;45.478;9.224;2024-01-15T15:31:16;12.18;;;8.93;;
50128;SDS011;36026;45.478;9.224;2024-01-15T15:34:19;11.23;;;8.50;;
50128;SDS011;36026;45.478;9.224;2024-01-15T15:37:21;14.00;;;8.95;;
50128;SDS011;36026;45.478;9.224;2024-01-15T15:40:23;12.07;;;8.88;;
50128;SDS011;36026;45.478;9.224;2024-01-15T15:43:25;13.23;;;8.50;;
50128;SDS011;36026;45.478;9.224;2024-01-15T15:46:26;13.60;;;8.77;;
50128;SDS011;36026;45.478;9.224;2024-01-15T15:49:30;13.25;;;9.48;;
50128;SDS011;36026;45.478;9.224;2024-01-15T15:52:32;11.52;;;8.75;;
50128;SDS011;36026;45.478;9.224;2024-01-15T15:55:34;13.85;;;9.02;;
50128;SDS011;36026;45.478;9.224;2024-01-15T15:58:37;12.23;;;8.90;;
50128;SDS011;36026;45.478;9.224;2024-01-15T16:01:38;13.15;;;8.75;;
50128;SDS011;36026;45.478;9.224;2024-01-15T16:04:41;13.68;;;9.05;;
50128;SDS011;36026;45.478;9.224;2024-01-15T16:07:43;12.82;;;9.23;;
50128;SDS011;36026;45.478;9.224;2024-01-15T16:10:45;13.55;;;8.95;;
50128;SDS011;36026;45.478;9.224;2024-01-15T16:13:48;15.00;;;9.73;;
50128;SDS011;36026;45.478;9.224;2024-01-15T16:16:50;14.57;;;9.68;;
50128;SDS011;36026;45.478;9.224;2024-01-15T16:19:57;14.48;;;10.40;;
50128;SDS011;36026;45.478;9.224;2024-01-15T16:22:59;16.55;;;10.52;;
50128;SDS011;36026;45.478;9.224;2024-01-15T16:26:01;14.07;;;9.73;;
50128;SDS011;36026;45.478;9.224;2024-01-15T16:29:02;15.75;;;10.05;;
50128;SDS011;36026;45.478;9.224;2024-01-15T16:32:04;14.82;;;10.05;;
50128;SDS011;36026;45.478;9.224;2024-01-15T16:35:09;14.38;;;9.18;;
50128;SDS011;36026;45.478;9.224;2024-01-15T16:38:10;15.68;;;10.65;;
50128;SDS011;36026;45.478;9.224;2024-01-15T16:41:12;16.08;;;10.43;;
50128;SDS011;36026;45.478;9.224;2024-01-15T16:44:14;18.70;;;11.10;;
50128;SDS011;36026;45.478;9.224;2024-01-15T16:47:16;19.52;;;11.05;;
50128;SDS011;36026;45.478;9.224;2024-01-15T16:50:19;15.68;;;10.75;;
50128;SDS011;36026;45.478;9.224;2024-01-15T16:53:21;18.65;;;11.18;;
50128;SDS011;36026;45.478;9.224;2024-01-15T16:56:23;16.65;;;11.57;;
50128;SDS011;36026;45.478;9.224;2024-01-15T16:59:24;14.82;;;10.57;;
50128;SDS011;36026;45.478;9.224;2024-01-15T17:02:26;16.25;;;11.18;;
50128;SDS011;36026;45.478;9.224;2024-01-15T17:05:29;16.30;;;10.93;;
50128;SDS011;36026;45.478;9.224;2024-01-15T17:08:31;17.73;;;11.77;;
50128;SDS011;36026;45.478;9.224;2024-01-15T17:11:33;17.70;;;11.32;;
50128;SDS011;36026;45.478;9.224;2024-01-15T17:14:34;17.40;;;11.48;;
50128;SDS011;36026;45.478;9.224;2024-01-15T17:17:36;19.27;;;11.70;;
50128;SDS011;36026;45.478;9.224;2024-01-15T17:20:39;18.17;;;11.82;;
50128;SDS011;36026;45.478;9.224;2024-01-15T17:23:44;18.95;;;12.90;;
50128;SDS011;36026;45.478;9.224;2024-01-15T17:26:46;22.23;;;13.60;;
50128;SDS011;36026;45.478;9.224;2024-01-15T17:29:49;22.70;;;15.52;;
50128;SDS011;36026;45.478;9.224;2024-01-15T17:32:52;26.52;;;17.45;;
50128;SDS011;36026;45.478;9.224;2024-01-15T17:35:56;28.90;;;19.13;;
50128;SDS011;36026;45.478;9.224;2024-01-15T17:38:59;32.30;;;20.25;;
50128;SDS011;36026;45.478;9.224;2024-01-15T17:42:01;31.70;;;19.92;;
50128;SDS011;36026;45.478;9.224;2024-01-15T17:45:04;32.92;;;20.83;;
50128;SDS011;36026;45.478;9.224;2024-01-15T17:48:07;32.35;;;20.25;;